sensor_id;sensor_type;location;lat;lon;timestamp;P1;durP1;ratioP1;P2;durP2;ratioP2
50249;SDS011;36133;42.522;27.456;2022-10-16T01:32:57;18.15;;;12.23;;
50249;SDS011;36133;42.522;27.456;2022-10-16T01:35:32;18.73;;;12.10;;
50249;SDS011;36133;42.522;27.456;2022-10-16T05:46:58;19.50;;;10.73;;
50249;SDS011;36133;42.522;27.456;2022-10-16T05:49:27;18.20;;;10.55;;
50249;SDS011;36133;42.522;27.456;2022-10-16T05:51:56;15.85;;;10.40;;
50249;SDS011;36133;42.522;27.456;2022-10-16T05:54:22;17.50;;;10.93;;
50249;SDS011;36133;42.522;27.456;2022-10-16T05:56:48;16.98;;;11.60;;
50249;SDS011;36133;42.522;27.456;2022-10-16T05:59:13;16.48;;;11.18;;
50249;SDS011;36133;42.522;27.456;2022-10-16T06:01:39;15.25;;;11.00;;
50249;SDS011;36133;42.522;27.456;2022-10-16T06:04:05;17.70;;;10.82;;
50249;SDS011;36133;42.522;27.456;2022-10-16T06:06:33;16.63;;;11.43;;
50249;SDS011;36133;42.522;27.456;2022-10-16T06:09:01;16.88;;;10.73;;
50249;SDS011;36133;42.522;27.456;2022-10-16T06:11:32;17.55;;;11.10;;
50249;SDS011;36133;42.522;27.456;2022-10-16T06:14:01;15.25;;;10.27;;
50249;SDS011;36133;42.522;27.456;2022-10-16T06:16:33;15.35;;;9.73;;
50249;SDS011;36133;42.522;27.456;2022-10-16T06:19:02;12.25;;;9.20;;
50249;SDS011;36133;42.522;27.456;2022-10-16T06:21:31;12.15;;;8.50;;
50249;SDS011;36133;42.522;27.456;2022-10-16T06:24:01;19.67;;;8.43;;
50249;SDS011;36133;42.522;27.456;2022-10-16T06:26:30;10.65;;;7.78;;
50249;SDS011;36133;42.522;27.456;2022-10-16T06:28:57;12.40;;;8.23;;
50249;SDS011;36133;42.522;27.456;2022-10-16T06:31:24;15.23;;;8.25;;
50249;SDS011;36133;42.522;27.456;2022-10-16T06:33:53;12.23;;;8.13;;
50249;SDS011;36133;42.522;27.456;2022-10-16T06:36:20;11.18;;;7.63;;
50249;SDS011;36133;42.522;27.456;2022-10-16T06:38:48;12.35;;;6.55;;
50249;SDS011;36133;42.522;27.456;2022-10-16T06:41:17;13.55;;;6.60;;
50249;SDS011;36133;42.522;27.456;2022-10-16T06:43:45;13.95;;;6.43;;
50249;SDS011;36133;42.522;27.456;2022-10-16T06:46:18;10.60;;;5.53;;
50249;SDS011;36133;42.522;27.456;2022-10-16T06:49:13;9.18;;;5.25;;
50249;SDS011;36133;42.522;27.456;2022-10-16T06:51:47;10.55;;;5.18;;
50249;SDS011;36133;42.522;27.456;2022-10-16T06:54:23;7.38;;;5.10;;
50249;SDS011;36133;42.522;27.456;2022-10-16T06:56:54;8.85;;;4.57;;
50249;SDS011;36133;42.522;27.456;2022-10-16T07:02:13;7.15;;;4.15;;
50249;SDS011;36133;42.522;27.456;2022-10-16T07:04:39;8.00;;;4.28;;
50249;SDS011;36133;42.522;27.456;2022-10-16T07:07:05;14.68;;;4.35;;
50249;SDS011;36133;42.522;27.456;2022-10-16T07:09:31;10.32;;;3.88;;
50249;SDS011;36133;42.522;27.456;2022-10-16T07:11:56;9.43;;;3.80;;
50249;SDS011;36133;42.522;27.456;2022-10-16T07:14:22;7.10;;;3.45;;
50249;SDS011;36133;42.522;27.456;2022-10-16T07:17:06;7.05;;;3.38;;
50249;SDS011;36133;42.522;27.456;2022-10-16T07:19:32;6.57;;;3.20;;
50249;SDS011;36133;42.522;27.456;2022-10-16T07:21:58;7.93;;;3.50;;
50249;SDS011;36133;42.522;27.456;2022-10-16T07:24:24;13.50;;;5.13;;
50249;SDS011;36133;42.522;27.456;2022-10-16T07:26:58;6.20;;;3.23;;
50249;SDS011;36133;42.522;27.456;2022-10-16T07:29:35;4.75;;;3.00;;
50249;SDS011;36133;42.522;27.456;2022-10-16T07:32:04;8.60;;;3.40;;
50249;SDS011;36133;42.522;27.456;2022-10-16T07:34:29;6.30;;;3.22;;
50249;SDS011;36133;42.522;27.456;2022-10-16T07:36:57;5.38;;;3.35;;
50249;SDS011;36133;42.522;27.456;2022-10-16T07:39:23;8.90;;;3.40;;
50249;SDS011;36133;42.522;27.456;2022-10-16T07:41:49;10.55;;;3.22;;
50249;SDS011;36133;42.522;27.456;2022-10-16T07:44:15;11.85;;;3.35;;
50249;SDS011;36133;42.522;27.456;2022-10-16T07:46:41;8.55;;;3.10;;
50249;SDS011;36133;42.522;27.456;2022-10-16T07:49:08;6.95;;;3.42;;
50249;SDS011;36133;42.522;27.456;2022-10-16T07:51:34;9.05;;;3.28;;
50249;SDS011;36133;42.522;27.456;2022-10-16T07:53:59;9.18;;;3.20;;
50249;SDS011;36133;42.522;27.456;2022-10-16T07:56:25;10.43;;;3.70;;
50249;SDS011;36133;42.522;27.456;2022-10-16T07:58:51;5.80;;;3.10;;
50249;SDS011;36133;42.522;27.456;2022-10-16T08:01:17;6.18;;;3.40;;
50249;SDS011;36133;42.522;27.456;2022-10-16T08:03:44;6.97;;;3.47;;
50249;SDS011;36133;42.522;27.456;2022-10-16T08:06:11;10.57;;;3.50;;
50249;SDS011;36133;42.522;27.456;2022-10-16T08:08:37;15.65;;;3.85;;
50249;SDS011;36133;42.522;27.456;2022-10-16T08:11:03;10.10;;;3.78;;
50249;SDS011;36133;42.522;27.456;2022-10-16T08:13:29;10.25;;;3.50;;
50249;SDS011;36133;42.522;27.456;2022-10-16T08:15:55;8.85;;;3.50;;
50249;SDS011;36133;42.522;27.456;2022-10-16T08:18:21;12.45;;;4.78;;
50249;SDS011;36133;42.522;27.456;2022-10-16T08:23:48;9.68;;;4.15;;
50249;SDS011;36133;42.522;27.456;2022-10-16T08:30:12;9.68;;;3.70;;
50249;SDS011;36133;42.522;27.456;2022-10-16T08:32:38;8.57;;;4.20;;
50249;SDS011;36133;42.522;27.456;2022-10-16T08:38:27;7.97;;;3.97;;
50249;SDS011;36133;42.522;27.456;2022-10-16T08:43:55;16.27;;;4.63;;
50249;SDS011;36133;42.522;27.456;2022-10-16T08:49:18;9.18;;;4.00;;
50249;SDS011;36133;42.522;27.456;2022-10-16T08:51:44;10.10;;;3.80;;
50249;SDS011;36133;42.522;27.456;2022-10-16T08:57:13;7.32;;;3.65;;
50249;SDS011;36133;42.522;27.456;2022-10-16T08:59:44;9.63;;;3.60;;
50249;SDS011;36133;42.522;27.456;2022-10-16T09:05:17;8.33;;;3.60;;
50249;SDS011;36133;42.522;27.456;2022-10-16T09:08:09;6.10;;;3.42;;
50249;SDS011;36133;42.522;27.456;2022-10-16T09:10:58;7.68;;;3.50;;
50249;SDS011;36133;42.522;27.456;2022-10-16T09:16:21;7.90;;;3.53;;
50249;SDS011;36133;42.522;27.456;2022-10-16T09:18:54;8.57;;;3.67;;
50249;SDS011;36133;42.522;27.456;2022-10-16T09:21:24;6.38;;;3.35;;
50249;SDS011;36133;42.522;27.456;2022-10-16T09:23:54;9.90;;;3.40;;
50249;SDS011;36133;42.522;27.456;2022-10-16T09:26:27;10.13;;;3.67;;
50249;SDS011;36133;42.522;27.456;2022-10-16T09:28:53;10.85;;;3.53;;
50249;SDS011;36133;42.522;27.456;2022-10-16T09:31:19;11.13;;;3.85;;
50249;SDS011;36133;42.522;27.456;2022-10-16T09:33:54;5.05;;;2.92;;
50249;SDS011;36133;42.522;27.456;2022-10-16T09:36:25;6.50;;;3.45;;
50249;SDS011;36133;42.522;27.456;2022-10-16T09:39:07;8.93;;;3.40;;
50249;SDS011;36133;42.522;27.456;2022-10-16T09:41:35;9.32;;;3.97;;
50249;SDS011;36133;42.522;27.456;2022-10-16T09:44:02;7.65;;;3.40;;
50249;SDS011;36133;42.522;27.456;2022-10-16T09:46:33;8.07;;;3.30;;
50249;SDS011;36133;42.522;27.456;2022-10-16T09:49:04;5.72;;;3.42;;
50249;SDS011;36133;42.522;27.456;2022-10-16T09:51:43;6.00;;;3.15;;
50249;SDS011;36133;42.522;27.456;2022-10-16T09:54:16;7.97;;;3.28;;
50249;SDS011;36133;42.522;27.456;2022-10-16T09:56:43;9.43;;;3.85;;
50249;SDS011;36133;42.522;27.456;2022-10-16T09:59:20;9.43;;;3.65;;
50249;SDS011;36133;42.522;27.456;2022-10-16T10:01:54;6.78;;;3.60;;
50249;SDS011;36133;42.522;27.456;2022-10-16T10:04:25;9.20;;;3.60;;
50249;SDS011;36133;42.522;27.456;2022-10-16T10:07:02;7.07;;;3.40;;
50249;SDS011;36133;42.522;27.456;2022-10-16T10:11:57;7.32;;;3.67;;
50249;SDS011;36133;42.522;27.456;2022-10-16T10:17:07;5.40;;;3.67;;
50249;SDS011;36133;42.522;27.456;2022-10-16T10:19:40;6.60;;;3.58;;
50249;SDS011;36133;42.522;27.456;2022-10-16T10:22:22;8.55;;;3.78;;
50249;SDS011;36133;42.522;27.456;2022-10-16T10:24:54;7.72;;;3.60;;
50249;SDS011;36133;42.522;27.456;2022-10-16T10:27:56;9.77;;;3.97;;
50249;SDS011;36133;42.522;27.456;2022-10-16T10:36:08;6.90;;;3.75;;
50249;SDS011;36133;42.522;27.456;2022-10-16T10:38:58;7.70;;;3.55;;
50249;SDS011;36133;42.522;27.456;2022-10-16T10:41:39;7.15;;;3.45;;
50249;SDS011;36133;42.522;27.456;2022-10-16T11:07:16;5.97;;;3.70;;
50249;SDS011;36133;42.522;27.456;2022-10-16T11:09:41;7.38;;;3.63;;
50249;SDS011;36133;42.522;27.456;2022-10-16T11:12:19;13.63;;;4.10;;
50249;SDS011;36133;42.522;27.456;2022-10-16T11:17:52;9.60;;;4.03;;
50249;SDS011;36133;42.522;27.456;2022-10-16T11:26:48;11.95;;;4.07;;
50249;SDS011;36133;42.522;27.456;2022-10-16T11:29:33;10.65;;;4.30;;
50249;SDS011;36133;42.522;27.456;2022-10-16T11:32:10;6.35;;;3.83;;
50249;SDS011;36133;42.522;27.456;2022-10-16T11:34:57;8.68;;;3.22;;
50249;SDS011;36133;42.522;27.456;2022-10-16T11:37:33;9.68;;;3.80;;
50249;SDS011;36133;42.522;27.456;2022-10-16T11:40:28;6.78;;;2.50;;
50249;SDS011;36133;42.522;27.456;2022-10-16T11:45:54;8.98;;;2.40;;
50249;SDS011;36133;42.522;27.456;2022-10-16T11:48:31;7.72;;;2.88;;
50249;SDS011;36133;42.522;27.456;2022-10-16T11:56:36;7.47;;;2.55;;
50249;SDS011;36133;42.522;27.456;2022-10-16T12:01:51;7.55;;;2.25;;
50249;SDS011;36133;42.522;27.456;2022-10-16T12:04:26;9.65;;;2.58;;
50249;SDS011;36133;42.522;27.456;2022-10-16T12:09:37;6.18;;;2.53;;
50249;SDS011;36133;42.522;27.456;2022-10-16T12:12:04;5.13;;;2.58;;
50249;SDS011;36133;42.522;27.456;2022-10-16T12:14:58;8.63;;;2.92;;
50249;SDS011;36133;42.522;27.456;2022-10-16T12:17:36;7.63;;;2.42;;
50249;SDS011;36133;42.522;27.456;2022-10-16T12:22:48;9.00;;;2.80;;
50249;SDS011;36133;42.522;27.456;2022-10-16T12:27:53;5.82;;;2.80;;
50249;SDS011;36133;42.522;27.456;2022-10-16T12:30:24;6.30;;;2.60;;
50249;SDS011;36133;42.522;27.456;2022-10-16T12:36:08;8.60;;;4.03;;
50249;SDS011;36133;42.522;27.456;2022-10-16T12:38:57;6.43;;;2.70;;
50249;SDS011;36133;42.522;27.456;2022-10-16T12:41:34;9.95;;;2.97;;
50249;SDS011;36133;42.522;27.456;2022-10-16T12:44:02;7.57;;;3.35;;
50249;SDS011;36133;42.522;27.456;2022-10-16T12:49:04;7.25;;;2.97;;
50249;SDS011;36133;42.522;27.456;2022-10-16T12:51:40;7.00;;;3.15;;
50249;SDS011;36133;42.522;27.456;2022-10-16T12:54:15;7.97;;;2.88;;
50249;SDS011;36133;42.522;27.456;2022-10-16T12:57:05;13.90;;;3.15;;
50249;SDS011;36133;42.522;27.456;2022-10-16T13:05:30;11.10;;;3.90;;
50249;SDS011;36133;42.522;27.456;2022-10-16T13:11:02;11.15;;;3.67;;
50249;SDS011;36133;42.522;27.456;2022-10-16T13:29:59;8.02;;;3.53;;
50249;SDS011;36133;42.522;27.456;2022-10-16T13:32:38;6.75;;;3.53;;
50249;SDS011;36133;42.522;27.456;2022-10-16T13:35:15;11.60;;;3.88;;
50249;SDS011;36133;42.522;27.456;2022-10-16T13:37:47;12.05;;;3.67;;
50249;SDS011;36133;42.522;27.456;2022-10-16T13:40:22;6.57;;;3.40;;
50249;SDS011;36133;42.522;27.456;2022-10-16T13:42:54;8.80;;;3.83;;
50249;SDS011;36133;42.522;27.456;2022-10-16T13:45:21;11.15;;;3.90;;
50249;SDS011;36133;42.522;27.456;2022-10-16T13:47:48;7.38;;;3.17;;
50249;SDS011;36133;42.522;27.456;2022-10-16T13:50:16;10.35;;;3.33;;
50249;SDS011;36133;42.522;27.456;2022-10-16T13:52:46;10.80;;;3.20;;
50249;SDS011;36133;42.522;27.456;2022-10-16T13:55:16;8.55;;;3.60;;
50249;SDS011;36133;42.522;27.456;2022-10-16T13:57:43;6.95;;;3.25;;
50249;SDS011;36133;42.522;27.456;2022-10-16T14:00:23;4.88;;;3.10;;
50249;SDS011;36133;42.522;27.456;2022-10-16T14:03:01;12.20;;;3.38;;
50249;SDS011;36133;42.522;27.456;2022-10-16T14:05:49;6.65;;;3.60;;
50249;SDS011;36133;42.522;27.456;2022-10-16T14:08:19;4.80;;;3.30;;
50249;SDS011;36133;42.522;27.456;2022-10-16T14:11:02;8.32;;;3.97;;
50249;SDS011;36133;42.522;27.456;2022-10-16T14:13:34;8.00;;;3.80;;
50249;SDS011;36133;42.522;27.456;2022-10-16T14:16:07;12.35;;;4.05;;
50249;SDS011;36133;42.522;27.456;2022-10-16T14:18:34;8.55;;;3.72;;
50249;SDS011;36133;42.522;27.456;2022-10-16T14:21:04;9.27;;;4.05;;
50249;SDS011;36133;42.522;27.456;2022-10-16T14:23:36;9.20;;;2.95;;
50249;SDS011;36133;42.522;27.456;2022-10-16T14:26:15;11.07;;;3.45;;
50249;SDS011;36133;42.522;27.456;2022-10-16T14:28:44;8.27;;;3.10;;
50249;SDS011;36133;42.522;27.456;2022-10-16T14:33:55;11.55;;;3.60;;
50249;SDS011;36133;42.522;27.456;2022-10-16T14:36:21;6.80;;;3.40;;
50249;SDS011;36133;42.522;27.456;2022-10-16T14:39:04;11.73;;;4.25;;
50249;SDS011;36133;42.522;27.456;2022-10-16T14:41:43;8.93;;;3.67;;
50249;SDS011;36133;42.522;27.456;2022-10-16T14:44:14;13.23;;;4.13;;
50249;SDS011;36133;42.522;27.456;2022-10-16T14:46:42;7.68;;;3.75;;
50249;SDS011;36133;42.522;27.456;2022-10-16T14:51:35;11.75;;;4.10;;
50249;SDS011;36133;42.522;27.456;2022-10-16T14:54:02;9.95;;;4.10;;
50249;SDS011;36133;42.522;27.456;2022-10-16T14:56:29;8.32;;;4.38;;
50249;SDS011;36133;42.522;27.456;2022-10-16T14:59:10;9.07;;;4.18;;
50249;SDS011;36133;42.522;27.456;2022-10-16T15:01:44;9.75;;;3.70;;
50249;SDS011;36133;42.522;27.456;2022-10-16T15:04:11;8.80;;;3.70;;
50249;SDS011;36133;42.522;27.456;2022-10-16T15:06:38;13.88;;;3.85;;
50249;SDS011;36133;42.522;27.456;2022-10-16T15:09:06;11.00;;;4.50;;
50249;SDS011;36133;42.522;27.456;2022-10-16T15:11:32;16.02;;;4.50;;
50249;SDS011;36133;42.522;27.456;2022-10-16T15:13:59;15.13;;;4.50;;
50249;SDS011;36133;42.522;27.456;2022-10-16T15:16:24;10.20;;;4.22;;
50249;SDS011;36133;42.522;27.456;2022-10-16T15:18:50;11.18;;;4.45;;
50249;SDS011;36133;42.522;27.456;2022-10-16T15:21:26;7.90;;;4.07;;
50249;SDS011;36133;42.522;27.456;2022-10-16T15:23:54;10.95;;;4.57;;
50249;SDS011;36133;42.522;27.456;2022-10-16T15:26:21;9.65;;;4.13;;
50249;SDS011;36133;42.522;27.456;2022-10-16T15:28:51;11.95;;;4.70;;
50249;SDS011;36133;42.522;27.456;2022-10-16T15:31:16;14.30;;;4.68;;
50249;SDS011;36133;42.522;27.456;2022-10-16T15:33:43;12.77;;;5.10;;
50249;SDS011;36133;42.522;27.456;2022-10-16T15:36:09;15.18;;;4.57;;
50249;SDS011;36133;42.522;27.456;2022-10-16T15:38:38;11.18;;;4.00;;
50249;SDS011;36133;42.522;27.456;2022-10-16T15:41:10;11.20;;;4.78;;
50249;SDS011;36133;42.522;27.456;2022-10-16T15:43:36;8.75;;;4.22;;
50249;SDS011;36133;42.522;27.456;2022-10-16T15:46:03;12.38;;;5.18;;
50249;SDS011;36133;42.522;27.456;2022-10-16T15:48:31;11.65;;;4.47;;
50249;SDS011;36133;42.522;27.456;2022-10-16T15:50:57;7.85;;;4.00;;
50249;SDS011;36133;42.522;27.456;2022-10-16T15:53:24;12.65;;;4.03;;
50249;SDS011;36133;42.522;27.456;2022-10-16T15:55:50;10.98;;;3.97;;
50249;SDS011;36133;42.522;27.456;2022-10-16T15:58:16;12.30;;;4.10;;
50249;SDS011;36133;42.522;27.456;2022-10-16T16:00:41;8.70;;;3.75;;
50249;SDS011;36133;42.522;27.456;2022-10-16T16:03:20;11.30;;;4.45;;
50249;SDS011;36133;42.522;27.456;2022-10-16T16:05:45;7.68;;;3.63;;
50249;SDS011;36133;42.522;27.456;2022-10-16T16:08:11;12.02;;;4.60;;
50249;SDS011;36133;42.522;27.456;2022-10-16T16:10:37;11.10;;;4.10;;
50249;SDS011;36133;42.522;27.456;2022-10-16T16:13:02;13.40;;;4.10;;
50249;SDS011;36133;42.522;27.456;2022-10-16T16:15:28;10.38;;;4.20;;
50249;SDS011;36133;42.522;27.456;2022-10-16T16:17:54;11.32;;;5.38;;
50249;SDS011;36133;42.522;27.456;2022-10-16T16:20:20;10.35;;;4.40;;
50249;SDS011;36133;42.522;27.456;2022-10-16T16:22:45;9.68;;;4.07;;
50249;SDS011;36133;42.522;27.456;2022-10-16T16:25:11;21.35;;;4.60;;
50249;SDS011;36133;42.522;27.456;2022-10-16T16:27:37;13.20;;;4.53;;
50249;SDS011;36133;42.522;27.456;2022-10-16T16:30:04;15.70;;;5.43;;
50249;SDS011;36133;42.522;27.456;2022-10-16T16:32:35;6.70;;;4.40;;
50249;SDS011;36133;42.522;27.456;2022-10-16T16:35:00;13.15;;;4.55;;
50249;SDS011;36133;42.522;27.456;2022-10-16T16:37:27;13.90;;;4.82;;
50249;SDS011;36133;42.522;27.456;2022-10-16T16:39:53;17.13;;;4.40;;
50249;SDS011;36133;42.522;27.456;2022-10-16T16:42:20;14.05;;;5.97;;
50249;SDS011;36133;42.522;27.456;2022-10-16T16:44:47;14.55;;;5.93;;
50249;SDS011;36133;42.522;27.456;2022-10-16T16:47:13;15.18;;;5.20;;
50249;SDS011;36133;42.522;27.456;2022-10-16T16:49:38;15.27;;;4.80;;
50249;SDS011;36133;42.522;27.456;2022-10-16T16:52:05;12.10;;;5.40;;
50249;SDS011;36133;42.522;27.456;2022-10-16T16:54:31;10.18;;;5.32;;
50249;SDS011;36133;42.522;27.456;2022-10-16T16:56:56;10.52;;;6.15;;
50249;SDS011;36133;42.522;27.456;2022-10-16T16:59:22;14.90;;;5.85;;
50249;SDS011;36133;42.522;27.456;2022-10-16T17:01:48;14.07;;;6.28;;
50249;SDS011;36133;42.522;27.456;2022-10-16T17:04:14;20.50;;;5.80;;
50249;SDS011;36133;42.522;27.456;2022-10-16T17:06:43;14.18;;;5.80;;
50249;SDS011;36133;42.522;27.456;2022-10-16T17:09:09;13.75;;;6.07;;
50249;SDS011;36133;42.522;27.456;2022-10-16T17:11:38;11.70;;;5.53;;
50249;SDS011;36133;42.522;27.456;2022-10-16T17:14:06;13.95;;;6.90;;
50249;SDS011;36133;42.522;27.456;2022-10-16T17:16:34;10.45;;;5.88;;
50249;SDS011;36133;42.522;27.456;2022-10-16T17:19:02;8.95;;;5.32;;
50249;SDS011;36133;42.522;27.456;2022-10-16T17:21:29;15.02;;;5.65;;
50249;SDS011;36133;42.522;27.456;2022-10-16T17:23:57;13.93;;;5.57;;
50249;SDS011;36133;42.522;27.456;2022-10-16T17:26:23;13.82;;;4.97;;
50249;SDS011;36133;42.522;27.456;2022-10-16T17:28:53;13.00;;;5.07;;
50249;SDS011;36133;42.522;27.456;2022-10-16T17:31:22;11.32;;;4.93;;
50249;SDS011;36133;42.522;27.456;2022-10-16T17:33:49;8.45;;;4.50;;
50249;SDS011;36133;42.522;27.456;2022-10-16T17:36:15;10.02;;;4.90;;
50249;SDS011;36133;42.522;27.456;2022-10-16T17:38:41;9.32;;;4.93;;
50249;SDS011;36133;42.522;27.456;2022-10-16T17:41:12;9.98;;;5.47;;
50249;SDS011;36133;42.522;27.456;2022-10-16T17:43:39;16.73;;;5.60;;
50249;SDS011;36133;42.522;27.456;2022-10-16T17:46:05;11.68;;;5.53;;
50249;SDS011;36133;42.522;27.456;2022-10-16T17:48:35;15.38;;;5.57;;
50249;SDS011;36133;42.522;27.456;2022-10-16T17:51:03;11.45;;;5.72;;
50249;SDS011;36133;42.522;27.456;2022-10-16T17:53:33;11.75;;;5.75;;
50249;SDS011;36133;42.522;27.456;2022-10-16T17:56:06;15.75;;;6.47;;
50249;SDS011;36133;42.522;27.456;2022-10-16T17:58:36;15.23;;;7.35;;
50249;SDS011;36133;42.522;27.456;2022-10-16T18:01:10;15.35;;;7.85;;
50249;SDS011;36133;42.522;27.456;2022-10-16T18:03:40;14.55;;;6.38;;
50249;SDS011;36133;42.522;27.456;2022-10-16T18:06:06;13.05;;;7.10;;
50249;SDS011;36133;42.522;27.456;2022-10-16T18:08:32;13.25;;;7.32;;
50249;SDS011;36133;42.522;27.456;2022-10-16T18:11:02;17.17;;;6.78;;
50249;SDS011;36133;42.522;27.456;2022-10-16T18:13:31;17.52;;;6.65;;
50249;SDS011;36133;42.522;27.456;2022-10-16T18:16:00;11.98;;;6.68;;
50249;SDS011;36133;42.522;27.456;2022-10-16T18:18:33;19.48;;;6.35;;
50249;SDS011;36133;42.522;27.456;2022-10-16T18:20:59;10.77;;;6.05;;
50249;SDS011;36133;42.522;27.456;2022-10-16T18:23:26;14.23;;;7.03;;
50249;SDS011;36133;42.522;27.456;2022-10-16T18:25:52;14.52;;;6.60;;
50249;SDS011;36133;42.522;27.456;2022-10-16T18:28:18;12.45;;;5.97;;
50249;SDS011;36133;42.522;27.456;2022-10-16T18:30:44;13.82;;;6.85;;
50249;SDS011;36133;42.522;27.456;2022-10-16T18:33:09;13.45;;;6.38;;
50249;SDS011;36133;42.522;27.456;2022-10-16T18:35:35;15.32;;;6.97;;
50249;SDS011;36133;42.522;27.456;2022-10-16T18:38:02;16.88;;;7.25;;
50249;SDS011;36133;42.522;27.456;2022-10-16T18:40:27;11.02;;;6.85;;
50249;SDS011;36133;42.522;27.456;2022-10-16T18:42:53;12.93;;;7.82;;
50249;SDS011;36133;42.522;27.456;2022-10-16T18:45:19;15.75;;;7.22;;
50249;SDS011;36133;42.522;27.456;2022-10-16T18:47:45;13.30;;;6.93;;
50249;SDS011;36133;42.522;27.456;2022-10-16T18:50:15;11.05;;;6.63;;
50249;SDS011;36133;42.522;27.456;2022-10-16T18:52:48;16.58;;;7.65;;
50249;SDS011;36133;42.522;27.456;2022-10-16T18:55:14;14.95;;;7.40;;
50249;SDS011;36133;42.522;27.456;2022-10-16T18:57:40;16.73;;;7.35;;
50249;SDS011;36133;42.522;27.456;2022-10-16T19:00:06;20.00;;;7.53;;
50249;SDS011;36133;42.522;27.456;2022-10-16T19:02:33;15.00;;;8.05;;
50249;SDS011;36133;42.522;27.456;2022-10-16T19:04:59;13.95;;;7.00;;
50249;SDS011;36133;42.522;27.456;2022-10-16T19:07:24;18.83;;;7.65;;
50249;SDS011;36133;42.522;27.456;2022-10-16T19:09:50;13.02;;;7.07;;
50249;SDS011;36133;42.522;27.456;2022-10-16T19:12:15;15.05;;;7.75;;
50249;SDS011;36133;42.522;27.456;2022-10-16T19:14:41;18.10;;;7.95;;
50249;SDS011;36133;42.522;27.456;2022-10-16T19:17:07;21.63;;;8.35;;
50249;SDS011;36133;42.522;27.456;2022-10-16T19:19:32;13.48;;;7.38;;
50249;SDS011;36133;42.522;27.456;2022-10-16T19:21:58;23.88;;;7.63;;
50249;SDS011;36133;42.522;27.456;2022-10-16T19:24:38;22.77;;;9.43;;
50249;SDS011;36133;42.522;27.456;2022-10-16T19:27:05;19.85;;;8.35;;
50249;SDS011;36133;42.522;27.456;2022-10-16T19:29:31;16.02;;;8.60;;
50249;SDS011;36133;42.522;27.456;2022-10-16T19:31:57;19.92;;;7.60;;
50249;SDS011;36133;42.522;27.456;2022-10-16T19:34:26;20.58;;;8.57;;
50249;SDS011;36133;42.522;27.456;2022-10-16T19:36:53;14.98;;;7.75;;
50249;SDS011;36133;42.522;27.456;2022-10-16T19:39:18;14.57;;;7.47;;
50249;SDS011;36133;42.522;27.456;2022-10-16T19:41:49;13.55;;;8.05;;
50249;SDS011;36133;42.522;27.456;2022-10-16T19:44:15;16.30;;;8.52;;
50249;SDS011;36133;42.522;27.456;2022-10-16T19:46:42;10.98;;;7.50;;
50249;SDS011;36133;42.522;27.456;2022-10-16T19:49:10;14.38;;;8.07;;
50249;SDS011;36133;42.522;27.456;2022-10-16T19:51:37;19.10;;;8.15;;
50249;SDS011;36133;42.522;27.456;2022-10-16T19:54:04;15.23;;;7.75;;
50249;SDS011;36133;42.522;27.456;2022-10-16T19:56:36;13.20;;;8.27;;
50249;SDS011;36133;42.522;27.456;2022-10-16T19:59:02;17.52;;;8.73;;
50249;SDS011;36133;42.522;27.456;2022-10-16T20:01:30;15.63;;;8.43;;
50249;SDS011;36133;42.522;27.456;2022-10-16T20:03:56;15.93;;;8.25;;
50249;SDS011;36133;42.522;27.456;2022-10-16T20:06:22;16.02;;;8.77;;
50249;SDS011;36133;42.522;27.456;2022-10-16T20:08:49;20.70;;;8.93;;
50249;SDS011;36133;42.522;27.456;2022-10-16T20:11:20;13.93;;;7.80;;
50249;SDS011;36133;42.522;27.456;2022-10-16T20:13:48;15.07;;;8.35;;
50249;SDS011;36133;42.522;27.456;2022-10-16T20:16:15;18.98;;;8.98;;
50249;SDS011;36133;42.522;27.456;2022-10-16T20:18:43;14.75;;;8.27;;
50249;SDS011;36133;42.522;27.456;2022-10-16T20:21:14;14.85;;;7.20;;
50249;SDS011;36133;42.522;27.456;2022-10-16T20:23:41;14.45;;;8.00;;
50249;SDS011;36133;42.522;27.456;2022-10-16T20:26:07;15.38;;;8.02;;
50249;SDS011;36133;42.522;27.456;2022-10-16T20:28:37;17.17;;;8.85;;
50249;SDS011;36133;42.522;27.456;2022-10-16T20:31:07;14.60;;;8.38;;
50249;SDS011;36133;42.522;27.456;2022-10-16T20:33:36;13.65;;;8.10;;
50249;SDS011;36133;42.522;27.456;2022-10-16T20:36:02;13.23;;;7.45;;
50249;SDS011;36133;42.522;27.456;2022-10-16T20:38:28;14.70;;;7.57;;
50249;SDS011;36133;42.522;27.456;2022-10-16T20:40:55;17.75;;;7.80;;
50249;SDS011;36133;42.522;27.456;2022-10-16T20:43:21;13.48;;;7.53;;
50249;SDS011;36133;42.522;27.456;2022-10-16T20:45:57;13.00;;;7.45;;
50249;SDS011;36133;42.522;27.456;2022-10-16T20:48:27;14.32;;;7.15;;
50249;SDS011;36133;42.522;27.456;2022-10-16T20:50:53;11.73;;;7.13;;
50249;SDS011;36133;42.522;27.456;2022-10-16T20:53:19;14.32;;;7.07;;
50249;SDS011;36133;42.522;27.456;2022-10-16T20:55:45;12.63;;;6.97;;
50249;SDS011;36133;42.522;27.456;2022-10-16T20:58:13;13.90;;;7.30;;
50249;SDS011;36133;42.522;27.456;2022-10-16T21:00:39;17.10;;;6.90;;
50249;SDS011;36133;42.522;27.456;2022-10-16T21:03:05;11.98;;;6.45;;
50249;SDS011;36133;42.522;27.456;2022-10-16T21:05:38;12.30;;;6.70;;
50249;SDS011;36133;42.522;27.456;2022-10-16T21:08:05;11.63;;;6.40;;
50249;SDS011;36133;42.522;27.456;2022-10-16T21:10:31;15.15;;;6.63;;
50249;SDS011;36133;42.522;27.456;2022-10-16T21:12:57;13.80;;;7.18;;
50249;SDS011;36133;42.522;27.456;2022-10-16T21:15:22;15.52;;;7.00;;
50249;SDS011;36133;42.522;27.456;2022-10-16T21:17:51;10.98;;;6.57;;
50249;SDS011;36133;42.522;27.456;2022-10-16T21:20:20;14.52;;;6.43;;
50249;SDS011;36133;42.522;27.456;2022-10-16T21:22:51;12.60;;;6.90;;
50249;SDS011;36133;42.522;27.456;2022-10-16T21:25:20;12.73;;;6.22;;
50249;SDS011;36133;42.522;27.456;2022-10-16T21:27:46;14.55;;;6.57;;
50249;SDS011;36133;42.522;27.456;2022-10-16T21:30:12;10.07;;;6.70;;
50249;SDS011;36133;42.522;27.456;2022-10-16T21:32:38;14.13;;;6.85;;
50249;SDS011;36133;42.522;27.456;2022-10-16T21:35:04;12.18;;;6.63;;
50249;SDS011;36133;42.522;27.456;2022-10-16T21:37:31;15.68;;;7.05;;
50249;SDS011;36133;42.522;27.456;2022-10-16T21:39:57;11.82;;;7.22;;
50249;SDS011;36133;42.522;27.456;2022-10-16T21:42:23;17.38;;;7.18;;
50249;SDS011;36133;42.522;27.456;2022-10-16T21:44:49;10.55;;;6.28;;
50249;SDS011;36133;42.522;27.456;2022-10-16T21:47:15;11.85;;;6.05;;
50249;SDS011;36133;42.522;27.456;2022-10-16T21:49:41;12.98;;;6.70;;
50249;SDS011;36133;42.522;27.456;2022-10-16T21:52:06;11.88;;;6.47;;
50249;SDS011;36133;42.522;27.456;2022-10-16T21:54:36;10.10;;;6.90;;
50249;SDS011;36133;42.522;27.456;2022-10-16T21:57:02;13.40;;;6.55;;
50249;SDS011;36133;42.522;27.456;2022-10-16T21:59:27;16.17;;;7.20;;
50249;SDS011;36133;42.522;27.456;2022-10-16T22:01:54;13.45;;;7.00;;
50249;SDS011;36133;42.522;27.456;2022-10-16T22:04:23;14.27;;;7.30;;
50249;SDS011;36133;42.522;27.456;2022-10-16T22:06:49;13.40;;;7.10;;
50249;SDS011;36133;42.522;27.456;2022-10-16T22:09:15;14.63;;;7.53;;
50249;SDS011;36133;42.522;27.456;2022-10-16T22:11:44;12.20;;;7.10;;
50249;SDS011;36133;42.522;27.456;2022-10-16T22:14:12;11.90;;;7.20;;
50249;SDS011;36133;42.522;27.456;2022-10-16T22:16:39;14.88;;;7.30;;
50249;SDS011;36133;42.522;27.456;2022-10-16T22:19:11;13.82;;;7.38;;
50249;SDS011;36133;42.522;27.456;2022-10-16T22:21:41;15.40;;;7.10;;
50249;SDS011;36133;42.522;27.456;2022-10-16T22:24:10;13.77;;;7.80;;
50249;SDS011;36133;42.522;27.456;2022-10-16T22:26:36;14.82;;;7.05;;